sensor_id;sensor_type;location;lat;lon;timestamp;pressure;altitude;pressure_sealevel;temperature;humidity
49297;BME280;35163;48.878;18.040;2023-05-01T00:00:21;98729.44;;;10.03;53.38
49297;BME280;35163;48.878;18.040;2023-05-01T00:02:47;98717.69;;;9.92;54.36
49297;BME280;35163;48.878;18.040;2023-05-01T00:05:14;98719.53;;;9.85;54.41
49297;BME280;35163;48.878;18.040;2023-05-01T00:07:41;98722.88;;;9.89;53.81
49297;BME280;35163;48.878;18.040;2023-05-01T00:10:07;98731.72;;;9.80;54.43
49297;BME280;35163;48.878;18.040;2023-05-01T00:12:34;98718.06;;;9.75;54.82
49297;BME280;35163;48.878;18.040;2023-05-01T00:15:01;98709.50;;;9.73;54.18
49297;BME280;35163;48.878;18.040;2023-05-01T00:17:28;98717.50;;;9.62;54.70
49297;BME280;35163;48.878;18.040;2023-05-01T00:19:57;98709.84;;;9.57;54.97
49297;BME280;35163;48.878;18.040;2023-05-01T00:22:25;98710.75;;;9.55;54.47
49297;BME280;35163;48.878;18.040;2023-05-01T00:24:51;98711.66;;;9.54;54.58
49297;BME280;35163;48.878;18.040;2023-05-01T00:27:18;98712.66;;;9.46;54.65
49297;BME280;35163;48.878;18.040;2023-05-01T00:29:45;98707.59;;;9.43;53.35
49297;BME280;35163;48.878;18.040;2023-05-01T00:32:11;98705.91;;;9.42;53.58
49297;BME280;35163;48.878;18.040;2023-05-01T00:34:38;98701.72;;;9.36;54.03
49297;BME280;35163;48.878;18.040;2023-05-01T00:37:05;98702.00;;;9.22;53.61
49297;BME280;35163;48.878;18.040;2023-05-01T00:39:32;98700.28;;;9.23;53.86
49297;BME280;35163;48.878;18.040;2023-05-01T00:41:58;98696.09;;;9.17;54.14
49297;BME280;35163;48.878;18.040;2023-05-01T00:44:25;98709.09;;;9.13;53.63
49297;BME280;35163;48.878;18.040;2023-05-01T00:46:52;98690.25;;;9.09;54.10
49297;BME280;35163;48.878;18.040;2023-05-01T00:49:19;98687.66;;;9.09;53.94
49297;BME280;35163;48.878;18.040;2023-05-01T00:51:48;98691.28;;;9.00;54.08
49297;BME280;35163;48.878;18.040;2023-05-01T00:54:18;98688.88;;;8.92;54.38
49297;BME280;35163;48.878;18.040;2023-05-01T00:56:46;98689.69;;;8.94;54.36
49297;BME280;35163;48.878;18.040;2023-05-01T00:59:13;98683.03;;;8.84;54.72
49297;BME280;35163;48.878;18.040;2023-05-01T01:01:40;98688.94;;;8.89;54.07
49297;BME280;35163;48.878;18.040;2023-05-01T01:04:07;98689.16;;;8.78;55.14
49297;BME280;35163;48.878;18.040;2023-05-01T01:12:26;98679.78;;;8.72;55.16
49297;BME280;35163;48.878;18.040;2023-05-01T01:15:06;98685.97;;;8.65;55.75
49297;BME280;35163;48.878;18.040;2023-05-01T01:17:41;98688.50;;;8.67;55.46
49297;BME280;35163;48.878;18.040;2023-05-01T01:23:35;98679.34;;;8.48;56.53
49297;BME280;35163;48.878;18.040;2023-05-01T01:26:32;98672.53;;;8.46;56.59
49297;BME280;35163;48.878;18.040;2023-05-01T01:29:21;98682.22;;;8.34;57.45
49297;BME280;35163;48.878;18.040;2023-05-01T01:32:14;98672.66;;;8.38;57.52
49297;BME280;35163;48.878;18.040;2023-05-01T01:35:00;98674.47;;;8.33;58.03
49297;BME280;35163;48.878;18.040;2023-05-01T01:38:08;98664.53;;;8.12;58.35
49297;BME280;35163;48.878;18.040;2023-05-01T01:40:49;98671.38;;;8.15;57.73
49297;BME280;35163;48.878;18.040;2023-05-01T01:43:20;98676.66;;;8.07;58.74
49297;BME280;35163;48.878;18.040;2023-05-01T01:45:56;98680.06;;;8.09;58.79
49297;BME280;35163;48.878;18.040;2023-05-01T01:48:30;98669.84;;;8.05;59.03
49297;BME280;35163;48.878;18.040;2023-05-01T01:50:59;98680.25;;;7.97;59.19
49297;BME280;35163;48.878;18.040;2023-05-01T01:53:28;98676.00;;;7.94;58.58
49297;BME280;35163;48.878;18.040;2023-05-01T01:55:57;98679.47;;;7.92;58.65
49297;BME280;35163;48.878;18.040;2023-05-01T01:58:28;98674.34;;;7.90;58.59
49297;BME280;35163;48.878;18.040;2023-05-01T02:00:56;98677.88;;;7.86;58.44
49297;BME280;35163;48.878;18.040;2023-05-01T02:03:24;98677.03;;;7.84;58.14
49297;BME280;35163;48.878;18.040;2023-05-01T02:05:54;98671.00;;;7.85;57.70
49297;BME280;35163;48.878;18.040;2023-05-01T02:08:23;98680.53;;;7.81;57.29
49297;BME280;35163;48.878;18.040;2023-05-01T02:10:51;98675.41;;;7.78;57.40
49297;BME280;35163;48.878;18.040;2023-05-01T02:13:28;98681.34;;;7.82;57.02
49297;BME280;35163;48.878;18.040;2023-05-01T02:16:01;98665.91;;;7.82;57.64
49297;BME280;35163;48.878;18.040;2023-05-01T02:18:29;98689.84;;;7.87;57.18
49297;BME280;35163;48.878;18.040;2023-05-01T02:20:57;98681.44;;;7.77;57.54
49297;BME280;35163;48.878;18.040;2023-05-01T02:23:26;98680.59;;;7.75;57.70
49297;BME280;35163;48.878;18.040;2023-05-01T02:25:55;98669.41;;;7.77;58.40
49297;BME280;35163;48.878;18.040;2023-05-01T02:28:23;98672.06;;;7.71;58.26
49297;BME280;35163;48.878;18.040;2023-05-01T02:30:52;98677.19;;;7.73;58.56
49297;BME280;35163;48.878;18.040;2023-05-01T02:33:19;98666.13;;;7.69;58.94
49297;BME280;35163;48.878;18.040;2023-05-01T02:35:48;98677.19;;;7.73;58.44
49297;BME280;35163;48.878;18.040;2023-05-01T02:38:15;98676.34;;;7.74;58.19
49297;BME280;35163;48.878;18.040;2023-05-01T02:40:45;98671.25;;;7.71;58.22
49297;BME280;35163;48.878;18.040;2023-05-01T02:43:15;98661.84;;;7.68;57.19
49297;BME280;35163;48.878;18.040;2023-05-01T02:45:44;98667.81;;;7.70;56.21
49297;BME280;35163;48.878;18.040;2023-05-01T02:48:14;98673.06;;;7.64;56.95
49297;BME280;35163;48.878;18.040;2023-05-01T02:50:45;98669.59;;;7.65;56.21
49297;BME280;35163;48.878;18.040;2023-05-01T02:53:14;98666.97;;;7.68;56.26
49297;BME280;35163;48.878;18.040;2023-05-01T02:55:43;98666.16;;;7.66;55.70
49297;BME280;35163;48.878;18.040;2023-05-01T02:58:16;98672.22;;;7.63;55.81
49297;BME280;35163;48.878;18.040;2023-05-01T03:00:44;98666.31;;;7.57;56.27
49297;BME280;35163;48.878;18.040;2023-05-01T03:03:14;98668.81;;;7.60;56.34
49297;BME280;35163;48.878;18.040;2023-05-01T03:05:41;98676.53;;;7.60;55.57
49297;BME280;35163;48.878;18.040;2023-05-01T03:08:08;98656.88;;;7.56;55.64
49297;BME280;35163;48.878;18.040;2023-05-01T03:10:38;98662.88;;;7.56;55.69
49297;BME280;35163;48.878;18.040;2023-05-01T03:13:05;98670.66;;;7.53;55.65
49297;BME280;35163;48.878;18.040;2023-05-01T03:15:32;98672.34;;;7.54;55.47
49297;BME280;35163;48.878;18.040;2023-05-01T03:18:01;98675.81;;;7.51;55.03
49297;BME280;35163;48.878;18.040;2023-05-01T03:20:28;98674.09;;;7.50;55.05
49297;BME280;35163;48.878;18.040;2023-05-01T03:22:56;98680.84;;;7.58;54.74
49297;BME280;35163;48.878;18.040;2023-05-01T03:25:23;98681.75;;;7.57;54.02
49297;BME280;35163;48.878;18.040;2023-05-01T03:27:49;98686.84;;;7.60;54.33
49297;BME280;35163;48.878;18.040;2023-05-01T03:30:18;98675.66;;;7.61;54.32
49297;BME280;35163;48.878;18.040;2023-05-01T03:32:45;98673.97;;;7.60;54.07
49297;BME280;35163;48.878;18.040;2023-05-01T03:35:11;98674.94;;;7.52;55.11
49297;BME280;35163;48.878;18.040;2023-05-01T03:37:38;98682.63;;;7.54;55.31
49297;BME280;35163;48.878;18.040;2023-05-01T03:40:05;98674.97;;;7.49;55.61
49297;BME280;35163;48.878;18.040;2023-05-01T03:42:32;98668.09;;;7.51;55.24
49297;BME280;35163;48.878;18.040;2023-05-01T03:45:01;98675.03;;;7.46;55.37
49297;BME280;35163;48.878;18.040;2023-05-01T03:47:28;98670.72;;;7.48;55.54
49297;BME280;35163;48.878;18.040;2023-05-01T03:49:55;98681.88;;;7.47;55.37
49297;BME280;35163;48.878;18.040;2023-05-01T03:52:22;98668.16;;;7.48;55.05
49297;BME280;35163;48.878;18.040;2023-05-01T03:54:49;98682.81;;;7.43;55.27
49297;BME280;35163;48.878;18.040;2023-05-01T03:57:15;98675.91;;;7.44;55.56
49297;BME280;35163;48.878;18.040;2023-05-01T03:59:42;98678.47;;;7.45;56.14
49297;BME280;35163;48.878;18.040;2023-05-01T04:02:09;98668.09;;;7.51;55.99
49297;BME280;35163;48.878;18.040;2023-05-01T04:04:36;98674.88;;;7.56;55.55
49297;BME280;35163;48.878;18.040;2023-05-01T04:07:03;98664.59;;;7.56;55.03
49297;BME280;35163;48.878;18.040;2023-05-01T04:09:30;98670.66;;;7.51;55.91
49297;BME280;35163;48.878;18.040;2023-05-01T04:11:57;98673.19;;;7.54;55.42
49297;BME280;35163;48.878;18.040;2023-05-01T04:14:23;98664.69;;;7.49;55.71
49297;BME280;35163;48.878;18.040;2023-05-01T04:16:50;98675.09;;;7.41;56.00
49297;BME280;35163;48.878;18.040;2023-05-01T04:19:17;98666.47;;;7.44;55.40
49297;BME280;35163;48.878;18.040;2023-05-01T04:21:44;98678.47;;;7.45;56.27
49297;BME280;35163;48.878;18.040;2023-05-01T04:24:11;98683.66;;;7.42;56.14
49297;BME280;35163;48.878;18.040;2023-05-01T04:26:38;98669.06;;;7.43;55.64
49297;BME280;35163;48.878;18.040;2023-05-01T04:29:05;98674.22;;;7.43;56.23
49297;BME280;35163;48.878;18.040;2023-05-01T04:31:32;98676.78;;;7.44;56.36
49297;BME280;35163;48.878;18.040;2023-05-01T04:33:59;98681.91;;;7.44;56.25
49297;BME280;35163;48.878;18.040;2023-05-01T04:36:25;98678.34;;;7.54;56.21
49297;BME280;35163;48.878;18.040;2023-05-01T04:38:52;98673.19;;;7.54;56.04
49297;BME280;35163;48.878;18.040;2023-05-01T04:41:19;98682.53;;;7.62;55.91
49297;BME280;35163;48.878;18.040;2023-05-01T04:43:51;98685.06;;;7.65;55.90
49297;BME280;35163;48.878;18.040;2023-05-01T04:46:17;98685.94;;;7.64;55.30
49297;BME280;35163;48.878;18.040;2023-05-01T04:48:44;98682.47;;;7.65;55.33
49297;BME280;35163;48.878;18.040;2023-05-01T04:51:11;98683.19;;;7.73;54.79
49297;BME280;35163;48.878;18.040;2023-05-01T04:53:37;98685.69;;;7.78;55.29
49297;BME280;35163;48.878;18.040;2023-05-01T04:56:07;98693.41;;;7.81;54.72
49297;BME280;35163;48.878;18.040;2023-05-01T04:58:33;98691.53;;;7.89;55.72
49297;BME280;35163;48.878;18.040;2023-05-01T05:01:00;98694.00;;;7.96;55.04
49297;BME280;35163;48.878;18.040;2023-05-01T05:03:27;98692.22;;;8.01;55.49
49297;BME280;35163;48.878;18.040;2023-05-01T05:05:54;98696.44;;;8.03;54.51
49297;BME280;35163;48.878;18.040;2023-05-01T05:08:20;98690.38;;;8.08;55.37
49297;BME280;35163;48.878;18.040;2023-05-01T05:10:47;98686.84;;;8.13;56.67
49297;BME280;35163;48.878;18.040;2023-05-01T05:13:14;98691.09;;;8.16;55.87
49297;BME280;35163;48.878;18.040;2023-05-01T05:15:40;98688.41;;;8.24;54.81
49297;BME280;35163;48.878;18.040;2023-05-01T05:18:07;98687.38;;;8.33;56.47
49297;BME280;35163;48.878;18.040;2023-05-01T05:20:37;98692.50;;;8.36;56.08
49297;BME280;35163;48.878;18.040;2023-05-01T05:23:04;98691.41;;;8.48;55.84
49297;BME280;35163;48.878;18.040;2023-05-01T05:25:33;98696.41;;;8.57;56.12
49297;BME280;35163;48.878;18.040;2023-05-01T05:28:00;98697.16;;;8.62;55.70
49297;BME280;35163;48.878;18.040;2023-05-01T05:30:27;98690.16;;;8.69;55.16
49297;BME280;35163;48.878;18.040;2023-05-01T05:32:54;98701.31;;;8.71;56.30
49297;BME280;35163;48.878;18.040;2023-05-01T05:35:20;98700.25;;;8.82;55.11
49297;BME280;35163;48.878;18.040;2023-05-01T05:37:47;98702.00;;;8.80;53.25
49297;BME280;35163;48.878;18.040;2023-05-01T05:40:14;98703.22;;;9.06;54.56
49297;BME280;35163;48.878;18.040;2023-05-01T05:42:41;98705.91;;;9.42;51.29
49297;BME280;35163;48.878;18.040;2023-05-01T05:45:08;98701.44;;;9.85;50.42
49297;BME280;35163;48.878;18.040;2023-05-01T05:47:35;98703.94;;;10.25;48.39
49297;BME280;35163;48.878;18.040;2023-05-01T05:50:02;98712.88;;;10.48;46.99
49297;BME280;35163;48.878;18.040;2023-05-01T05:52:29;98701.03;;;10.73;47.77
49297;BME280;35163;48.878;18.040;2023-05-01T05:54:56;98704.69;;;10.96;46.88
49297;BME280;35163;48.878;18.040;2023-05-01T05:57:23;98709.47;;;11.10;45.98
49297;BME280;35163;48.878;18.040;2023-05-01T05:59:50;98712.97;;;11.37;45.84
49297;BME280;35163;48.878;18.040;2023-05-01T06:02:16;98716.53;;;11.63;47.07
49297;BME280;35163;48.878;18.040;2023-05-01T06:04:43;98703.19;;;11.76;44.16
49297;BME280;35163;48.878;18.040;2023-05-01T06:07:10;98707.78;;;11.95;43.31
49297;BME280;35163;48.878;18.040;2023-05-01T06:09:36;98713.31;;;12.11;42.74
49297;BME280;35163;48.878;18.040;2023-05-01T06:12:04;98705.78;;;12.30;41.96
49297;BME280;35163;48.878;18.040;2023-05-01T06:14:31;98702.66;;;12.46;41.93
49297;BME280;35163;48.878;18.040;2023-05-01T06:16:57;98715.91;;;12.63;41.01
49297;BME280;35163;48.878;18.040;2023-05-01T06:19:24;98710.38;;;12.73;40.65
49297;BME280;35163;48.878;18.040;2023-05-01T06:21:51;98709.69;;;12.92;40.25
49297;BME280;35163;48.878;18.040;2023-05-01T06:24:17;98714.22;;;13.10;40.29
49297;BME280;35163;48.878;18.040;2023-05-01T06:26:44;98705.19;;;13.21;39.50
49297;BME280;35163;48.878;18.040;2023-05-01T06:29:11;98709.19;;;13.30;39.88
49297;BME280;35163;48.878;18.040;2023-05-01T06:31:38;98712.81;;;13.48;39.45
49297;BME280;35163;48.878;18.040;2023-05-01T06:34:04;98712.03;;;13.70;41.28
49297;BME280;35163;48.878;18.040;2023-05-01T06:36:31;98714.53;;;13.94;40.52
49297;BME280;35163;48.878;18.040;2023-05-01T06:38:57;98720.66;;;14.14;40.87
49297;BME280;35163;48.878;18.040;2023-05-01T06:41:24;98717.50;;;14.28;39.71
49297;BME280;35163;48.878;18.040;2023-05-01T06:43:52;98712.34;;;14.47;39.51
49297;BME280;35163;48.878;18.040;2023-05-01T06:46:21;98709.16;;;14.61;38.67
49297;BME280;35163;48.878;18.040;2023-05-01T06:48:47;98707.81;;;14.72;38.20
49297;BME280;35163;48.878;18.040;2023-05-01T06:51:14;98708.38;;;14.78;38.03
49297;BME280;35163;48.878;18.040;2023-05-01T06:53:41;98703.31;;;14.96;38.38
49297;BME280;35163;48.878;18.040;2023-05-01T06:56:08;98703.81;;;15.04;37.75
49297;BME280;35163;48.878;18.040;2023-05-01T06:58:39;98705.88;;;15.17;37.73
49297;BME280;35163;48.878;18.040;2023-05-01T07:01:06;98706.97;;;15.30;38.12
49297;BME280;35163;48.878;18.040;2023-05-01T07:03:32;98705.50;;;15.44;37.54
49297;BME280;35163;48.878;18.040;2023-05-01T07:06:02;98708.00;;;15.65;38.44
49297;BME280;35163;48.878;18.040;2023-05-01T07:08:29;98709.56;;;15.87;36.97
49297;BME280;35163;48.878;18.040;2023-05-01T07:10:56;98705.31;;;16.03;37.46
49297;BME280;35163;48.878;18.040;2023-05-01T07:13:23;98708.94;;;16.19;36.87
49297;BME280;35163;48.878;18.040;2023-05-01T07:15:50;98700.88;;;16.23;36.40
49297;BME280;35163;48.878;18.040;2023-05-01T07:18:19;98706.25;;;16.38;36.49
49297;BME280;35163;48.878;18.040;2023-05-01T07:20:46;98703.34;;;16.60;36.61
49297;BME280;35163;48.878;18.040;2023-05-01T07:23:18;98709.56;;;16.75;37.05
49297;BME280;35163;48.878;18.040;2023-05-01T07:25:45;98703.44;;;16.93;36.27
49297;BME280;35163;48.878;18.040;2023-05-01T07:28:11;98710.41;;;17.10;36.58
49297;BME280;35163;48.878;18.040;2023-05-01T07:30:38;98704.34;;;17.26;36.13
49297;BME280;35163;48.878;18.040;2023-05-01T07:33:05;98703.31;;;17.44;36.14
49297;BME280;35163;48.878;18.040;2023-05-01T07:35:32;98706.00;;;17.59;36.03
49297;BME280;35163;48.878;18.040;2023-05-01T07:37:59;98715.69;;;17.73;35.17
49297;BME280;35163;48.878;18.040;2023-05-01T07:40:26;98705.94;;;17.91;35.32
49297;BME280;35163;48.878;18.040;2023-05-01T07:42:52;98706.00;;;18.06;35.30
49297;BME280;35163;48.878;18.040;2023-05-01T07:45:20;98706.47;;;18.13;35.51
49297;BME280;35163;48.878;18.040;2023-05-01T07:47:46;98700.28;;;18.30;35.09
49297;BME280;35163;48.878;18.040;2023-05-01T07:50:13;98698.44;;;18.46;35.47
49297;BME280;35163;48.878;18.040;2023-05-01T07:52:40;98702.19;;;18.57;35.60
49297;BME280;35163;48.878;18.040;2023-05-01T07:55:09;98704.78;;;18.72;35.58
49297;BME280;35163;48.878;18.040;2023-05-01T07:57:36;98699.94;;;18.80;35.03
49297;BME280;35163;48.878;18.040;2023-05-01T08:00:04;98697.34;;;18.80;33.66
49297;BME280;35163;48.878;18.040;2023-05-01T08:02:31;98709.56;;;18.94;34.79
49297;BME280;35163;48.878;18.040;2023-05-01T08:04:58;98701.44;;;18.99;34.38
49297;BME280;35163;48.878;18.040;2023-05-01T08:07:25;98705.16;;;18.94;34.87
49297;BME280;35163;48.878;18.040;2023-05-01T08:09:51;98702.81;;;19.04;34.61
49297;BME280;35163;48.878;18.040;2023-05-01T08:12:18;98698.31;;;19.06;34.48
49297;BME280;35163;48.878;18.040;2023-05-01T08:14:45;98703.84;;;19.16;35.06
49297;BME280;35163;48.878;18.040;2023-05-01T08:17:13;98700.13;;;19.21;34.75
49297;BME280;35163;48.878;18.040;2023-05-01T08:19:41;98703.19;;;19.27;34.95
49297;BME280;35163;48.878;18.040;2023-05-01T08:22:07;98709.56;;;19.23;34.85
49297;BME280;35163;48.878;18.040;2023-05-01T08:24:40;98709.47;;;19.25;34.53
49297;BME280;35163;48.878;18.040;2023-05-01T08:27:09;98708.53;;;19.26;34.64
49297;BME280;35163;48.878;18.040;2023-05-01T08:29:36;98710.66;;;19.34;35.67
49297;BME280;35163;48.878;18.040;2023-05-01T08:32:03;98711.31;;;19.37;35.61
49297;BME280;35163;48.878;18.040;2023-05-01T08:34:29;98716.19;;;19.43;36.43
49297;BME280;35163;48.878;18.040;2023-05-01T08:36:58;98702.31;;;19.41;36.43
49297;BME280;35163;48.878;18.040;2023-05-01T08:39:25;98703.06;;;19.43;35.94
49297;BME280;35163;48.878;18.040;2023-05-01T08:41:51;98698.00;;;19.40;36.44
49297;BME280;35163;48.878;18.040;2023-05-01T08:44:19;98702.78;;;19.48;37.11
49297;BME280;35163;48.878;18.040;2023-05-01T08:49:27;98712.53;;;19.59;37.18
49297;BME280;35163;48.878;18.040;2023-05-01T08:52:00;98717.06;;;19.57;36.41
49297;BME280;35163;48.878;18.040;2023-05-01T08:54:30;98706.97;;;19.51;36.20
49297;BME280;35163;48.878;18.040;2023-05-01T08:57:00;98702.78;;;19.48;35.91
49297;BME280;35163;48.878;18.040;2023-05-01T08:59:34;98703.41;;;19.52;36.50
49297;BME280;35163;48.878;18.040;2023-05-01T09:02:02;98707.59;;;19.54;36.56
49297;BME280;35163;48.878;18.040;2023-05-01T09:04:32;98706.59;;;19.57;36.80
49297;BME280;35163;48.878;18.040;2023-05-01T09:06:59;98705.31;;;19.63;38.50
49297;BME280;35163;48.878;18.040;2023-05-01T09:09:30;98698.19;;;19.65;37.85
49297;BME280;35163;48.878;18.040;2023-05-01T09:12:24;98688.66;;;19.64;37.57
49297;BME280;35163;48.878;18.040;2023-05-01T09:14:55;98680.59;;;19.67;38.04
49297;BME280;35163;48.878;18.040;2023-05-01T09:17:23;98685.09;;;19.65;37.54
49297;BME280;35163;48.878;18.040;2023-05-01T09:19:50;98684.25;;;19.64;37.29
49297;BME280;35163;48.878;18.040;2023-05-01T09:22:19;98684.44;;;19.61;37.29
49297;BME280;35163;48.878;18.040;2023-05-01T09:24:46;98687.28;;;19.58;37.16
49297;BME280;35163;48.878;18.040;2023-05-01T09:27:13;98676.78;;;19.58;36.76
49297;BME280;35163;48.878;18.040;2023-05-01T09:34:47;98672.53;;;19.42;36.63
49297;BME280;35163;48.878;18.040;2023-05-01T09:37:29;98675.56;;;19.36;36.09
49297;BME280;35163;48.878;18.040;2023-05-01T09:40:03;98674.22;;;19.43;37.63
49297;BME280;35163;48.878;18.040;2023-05-01T09:42:31;98669.00;;;19.43;37.68
49297;BME280;35163;48.878;18.040;2023-05-01T09:45:02;98667.50;;;19.39;36.82
49297;BME280;35163;48.878;18.040;2023-05-01T09:47:29;98662.25;;;19.39;37.73
49297;BME280;35163;48.878;18.040;2023-05-01T09:49:58;98660.38;;;19.41;38.53
49297;BME280;35163;48.878;18.040;2023-05-01T09:52:26;98654.94;;;19.45;38.42
49297;BME280;35163;48.878;18.040;2023-05-01T09:57:39;98661.25;;;19.55;39.89
49297;BME280;35163;48.878;18.040;2023-05-01T10:00:09;98658.53;;;19.57;38.93
49297;BME280;35163;48.878;18.040;2023-05-01T10:02:37;98654.31;;;19.54;38.52
49297;BME280;35163;48.878;18.040;2023-05-01T10:05:05;98647.84;;;19.60;40.73
49297;BME280;35163;48.878;18.040;2023-05-01T10:07:32;98656.56;;;19.60;39.19
49297;BME280;35163;48.878;18.040;2023-05-01T10:10:19;98652.88;;;19.63;39.35
49297;BME280;35163;48.878;18.040;2023-05-01T10:12:47;98658.22;;;19.61;38.62
49297;BME280;35163;48.878;18.040;2023-05-01T10:15:15;98648.69;;;19.60;38.03
49297;BME280;35163;48.878;18.040;2023-05-01T10:17:52;98638.41;;;19.57;37.56
49297;BME280;35163;48.878;18.040;2023-05-01T10:20:20;98639.88;;;19.61;38.63
49297;BME280;35163;48.878;18.040;2023-05-01T10:22:47;98636.97;;;19.66;39.40
49297;BME280;35163;48.878;18.040;2023-05-01T10:25:16;98634.81;;;19.58;37.85
49297;BME280;35163;48.878;18.040;2023-05-01T10:27:43;98631.66;;;19.53;37.68
49297;BME280;35163;48.878;18.040;2023-05-01T10:30:10;98633.06;;;19.59;39.16
49297;BME280;35163;48.878;18.040;2023-05-01T10:32:37;98634.09;;;19.56;38.99
49297;BME280;35163;48.878;18.040;2023-05-01T10:35:11;98626.75;;;19.61;39.43
49297;BME280;35163;48.878;18.040;2023-05-01T10:37:47;98627.28;;;19.66;39.25
49297;BME280;35163;48.878;18.040;2023-05-01T10:43:25;98620.38;;;19.65;38.21
49297;BME280;35163;48.878;18.040;2023-05-01T10:51:20;98610.63;;;19.67;39.05
49297;BME280;35163;48.878;18.040;2023-05-01T10:56:40;98615.97;;;19.66;39.74
49297;BME280;35163;48.878;18.040;2023-05-01T10:59:08;98607.25;;;19.65;39.15
49297;BME280;35163;48.878;18.040;2023-05-01T11:01:36;98611.56;;;19.66;38.34
49297;BME280;35163;48.878;18.040;2023-05-01T11:09:56;98598.97;;;19.72;39.63
49297;BME280;35163;48.878;18.040;2023-05-01T11:12:47;98591.84;;;19.74;39.84
49297;BME280;35163;48.878;18.040;2023-05-01T11:15:27;98593.41;;;19.76;39.57
49297;BME280;35163;48.878;18.040;2023-05-01T11:17:54;98582.00;;;19.77;39.81
49297;BME280;35163;48.878;18.040;2023-05-01T11:20:45;98581.56;;;19.84;40.32
49297;BME280;35163;48.878;18.040;2023-05-01T11:23:16;98573.59;;;19.85;40.17
49297;BME280;35163;48.878;18.040;2023-05-01T11:25:44;98579.69;;;19.86;39.60
49297;BME280;35163;48.878;18.040;2023-05-01T11:28:17;98574.00;;;19.92;40.36
49297;BME280;35163;48.878;18.040;2023-05-01T11:30:48;98578.22;;;19.95;40.00
49297;BME280;35163;48.878;18.040;2023-05-01T11:33:21;98571.28;;;19.94;37.60
49297;BME280;35163;48.878;18.040;2023-05-01T11:35:56;98572.03;;;19.96;37.79
49297;BME280;35163;48.878;18.040;2023-05-01T11:38:22;98572.78;;;19.98;38.73
49297;BME280;35163;48.878;18.040;2023-05-01T11:40:54;98570.66;;;20.03;38.93
49297;BME280;35163;48.878;18.040;2023-05-01T11:43:21;98563.94;;;19.99;37.82
49297;BME280;35163;48.878;18.040;2023-05-01T11:45:51;98557.03;;;19.98;38.77
49297;BME280;35163;48.878;18.040;2023-05-01T11:48:20;98552.53;;;20.00;39.24
49297;BME280;35163;48.878;18.040;2023-05-01T11:50:46;98555.16;;;20.00;40.26
49297;BME280;35163;48.878;18.040;2023-05-01T11:53:13;98558.22;;;20.07;40.46
49297;BME280;35163;48.878;18.040;2023-05-01T11:55:41;98547.38;;;20.11;40.64
49297;BME280;35163;48.878;18.040;2023-05-01T11:58:14;98550.97;;;20.10;39.64
49297;BME280;35163;48.878;18.040;2023-05-01T12:00:42;98548.94;;;20.01;37.81
49297;BME280;35163;48.878;18.040;2023-05-01T12:03:13;98551.28;;;20.06;39.33
49297;BME280;35163;48.878;18.040;2023-05-01T12:05:43;98546.44;;;20.12;39.73
49297;BME280;35163;48.878;18.040;2023-05-01T12:08:21;98544.13;;;20.21;40.27
49297;BME280;35163;48.878;18.040;2023-05-01T12:10:52;98546.09;;;20.30;40.51
49297;BME280;35163;48.878;18.040;2023-05-01T12:13:21;98544.75;;;20.37;40.22
49297;BME280;35163;48.878;18.040;2023-05-01T12:15:52;98545.47;;;20.39;39.33
49297;BME280;35163;48.878;18.040;2023-05-01T12:18:20;98539.25;;;20.40;39.84
49297;BME280;35163;48.878;18.040;2023-05-01T12:20:51;98532.97;;;20.43;38.35
49297;BME280;35163;48.878;18.040;2023-05-01T12:23:38;98530.94;;;20.47;38.53
49297;BME280;35163;48.878;18.040;2023-05-01T12:26:18;98522.03;;;20.49;38.56
49297;BME280;35163;48.878;18.040;2023-05-01T12:28:54;98523.38;;;20.55;39.53
49297;BME280;35163;48.878;18.040;2023-05-01T12:31:24;98521.34;;;20.59;39.38
49297;BME280;35163;48.878;18.040;2023-05-01T12:33:56;98519.34;;;20.62;39.23
49297;BME280;35163;48.878;18.040;2023-05-01T12:36:25;98514.72;;;20.66;39.18
49297;BME280;35163;48.878;18.040;2023-05-01T12:39:08;98514.72;;;20.66;39.45
49297;BME280;35163;48.878;18.040;2023-05-01T12:46:59;98501.16;;;20.72;38.90
49297;BME280;35163;48.878;18.040;2023-05-01T12:49:28;98490.72;;;20.71;40.28
49297;BME280;35163;48.878;18.040;2023-05-01T12:51:56;98494.72;;;20.76;40.63
49297;BME280;35163;48.878;18.040;2023-05-01T12:54:26;98494.81;;;20.75;39.18
49297;BME280;35163;48.878;18.040;2023-05-01T12:57:13;98484.19;;;20.76;38.59
49297;BME280;35163;48.878;18.040;2023-05-01T12:59:42;98484.59;;;20.83;39.14
49297;BME280;35163;48.878;18.040;2023-05-01T13:02:13;98483.16;;;20.79;38.98
49297;BME280;35163;48.878;18.040;2023-05-01T13:04:45;98480.78;;;20.87;37.69
49297;BME280;35163;48.878;18.040;2023-05-01T13:07:17;98471.78;;;20.79;36.90
49297;BME280;35163;48.878;18.040;2023-05-01T13:12:16;98457.09;;;20.76;37.44
49297;BME280;35163;48.878;18.040;2023-05-01T13:14:43;98459.50;;;20.79;38.12
49297;BME280;35163;48.878;18.040;2023-05-01T13:17:11;98462.13;;;20.79;38.60
49297;BME280;35163;48.878;18.040;2023-05-01T13:19:37;98456.88;;;20.79;37.65
49297;BME280;35163;48.878;18.040;2023-05-01T13:22:05;98455.91;;;20.80;37.16
49297;BME280;35163;48.878;18.040;2023-05-01T13:24:39;98453.06;;;20.83;37.06
49297;BME280;35163;48.878;18.040;2023-05-01T13:27:07;98452.13;;;20.84;37.49
49297;BME280;35163;48.878;18.040;2023-05-01T13:29:34;98441.81;;;20.81;37.08
49297;BME280;35163;48.878;18.040;2023-05-01T13:32:05;98443.50;;;20.82;35.48
49297;BME280;35163;48.878;18.040;2023-05-01T13:34:35;98436.56;;;20.81;34.48
49297;BME280;35163;48.878;18.040;2023-05-01T13:37:03;98432.38;;;20.79;34.55
49297;BME280;35163;48.878;18.040;2023-05-01T13:39:29;98428.81;;;20.80;34.45
49297;BME280;35163;48.878;18.040;2023-05-01T13:41:56;98421.03;;;20.78;34.73
49297;BME280;35163;48.878;18.040;2023-05-01T13:44:23;98421.66;;;20.82;34.82
49297;BME280;35163;48.878;18.040;2023-05-01T13:46:49;98417.47;;;20.79;34.70
49297;BME280;35163;48.878;18.040;2023-05-01T13:49:19;98421.75;;;20.80;35.13